sensor_id;sensor_type;location;lat;lon;timestamp;P1;durP1;ratioP1;P2;durP2;ratioP2
12715;SDS011;6422;49.938;9.124;2022-09-21T00:00:10;12.87;;;1.90;;
12715;SDS011;6422;49.938;9.124;2022-09-21T00:02:35;12.23;;;1.87;;
12715;SDS011;6422;49.938;9.124;2022-09-21T00:05:00;12.98;;;1.70;;
12715;SDS011;6422;49.938;9.124;2022-09-21T00:07:25;18.87;;;2.33;;
12715;SDS011;6422;49.938;9.124;2022-09-21T00:09:50;14.82;;;1.80;;
12715;SDS011;6422;49.938;9.124;2022-09-21T00:12:16;12.40;;;1.65;;
12715;SDS011;6422;49.938;9.124;2022-09-21T00:14:41;12.77;;;1.48;;
12715;SDS011;6422;49.938;9.124;2022-09-21T00:17:06;13.53;;;2.07;;
12715;SDS011;6422;49.938;9.124;2022-09-21T00:19:33;12.45;;;1.60;;
12715;SDS011;6422;49.938;9.124;2022-09-21T00:21:58;11.00;;;1.50;;
12715;SDS011;6422;49.938;9.124;2022-09-21T00:24:23;12.47;;;1.90;;
12715;SDS011;6422;49.938;9.124;2022-09-21T00:26:49;18.80;;;1.77;;
12715;SDS011;6422;49.938;9.124;2022-09-21T00:29:14;12.50;;;1.20;;
12715;SDS011;6422;49.938;9.124;2022-09-21T00:31:39;14.23;;;2.10;;
12715;SDS011;6422;49.938;9.124;2022-09-21T00:34:04;13.18;;;1.75;;
12715;SDS011;6422;49.938;9.124;2022-09-21T00:36:31;12.63;;;1.70;;
12715;SDS011;6422;49.938;9.124;2022-09-21T00:38:58;13.50;;;1.70;;
12715;SDS011;6422;49.938;9.124;2022-09-21T00:41:25;12.70;;;1.40;;
12715;SDS011;6422;49.938;9.124;2022-09-21T00:44:35;13.63;;;1.20;;
12715;SDS011;6422;49.938;9.124;2022-09-21T00:46:36;13.47;;;1.40;;
12715;SDS011;6422;49.938;9.124;2022-09-21T00:49:03;11.37;;;1.30;;
12715;SDS011;6422;49.938;9.124;2022-09-21T00:51:28;11.97;;;1.20;;
12715;SDS011;6422;49.938;9.124;2022-09-21T00:53:55;11.60;;;1.73;;
12715;SDS011;6422;49.938;9.124;2022-09-21T00:56:23;12.90;;;1.80;;
12715;SDS011;6422;49.938;9.124;2022-09-21T00:58:49;13.87;;;1.70;;
12715;SDS011;6422;49.938;9.124;2022-09-21T01:01:14;12.10;;;1.30;;
12715;SDS011;6422;49.938;9.124;2022-09-21T01:03:42;12.00;;;2.13;;
12715;SDS011;6422;49.938;9.124;2022-09-21T01:06:09;11.50;;;1.70;;
12715;SDS011;6422;49.938;9.124;2022-09-21T01:08:34;14.90;;;2.20;;
12715;SDS011;6422;49.938;9.124;2022-09-21T01:11:08;13.37;;;2.03;;
12715;SDS011;6422;49.938;9.124;2022-09-21T01:16:04;15.82;;;2.47;;
12715;SDS011;6422;49.938;9.124;2022-09-21T01:21:15;12.33;;;1.90;;
12715;SDS011;6422;49.938;9.124;2022-09-21T01:23:44;13.90;;;1.77;;
12715;SDS011;6422;49.938;9.124;2022-09-21T01:26:16;12.50;;;1.83;;
12715;SDS011;6422;49.938;9.124;2022-09-21T01:28:55;13.40;;;2.00;;
12715;SDS011;6422;49.938;9.124;2022-09-21T01:31:25;11.77;;;1.73;;
12715;SDS011;6422;49.938;9.124;2022-09-21T01:33:53;12.67;;;1.90;;
12715;SDS011;6422;49.938;9.124;2022-09-21T01:36:21;17.03;;;1.93;;
12715;SDS011;6422;49.938;9.124;2022-09-21T01:39:01;12.90;;;1.90;;
12715;SDS011;6422;49.938;9.124;2022-09-21T01:41:26;13.67;;;2.13;;
12715;SDS011;6422;49.938;9.124;2022-09-21T01:43:54;11.90;;;1.60;;
12715;SDS011;6422;49.938;9.124;2022-09-21T01:46:21;12.57;;;1.90;;
12715;SDS011;6422;49.938;9.124;2022-09-21T01:48:47;11.30;;;1.80;;
12715;SDS011;6422;49.938;9.124;2022-09-21T01:51:14;13.83;;;2.20;;
12715;SDS011;6422;49.938;9.124;2022-09-21T01:53:43;17.53;;;2.30;;
12715;SDS011;6422;49.938;9.124;2022-09-21T01:56:17;16.53;;;3.90;;
12715;SDS011;6422;49.938;9.124;2022-09-21T02:01:33;20.90;;;3.20;;
12715;SDS011;6422;49.938;9.124;2022-09-21T02:04:01;14.30;;;2.10;;
12715;SDS011;6422;49.938;9.124;2022-09-21T02:06:28;12.07;;;2.47;;
12715;SDS011;6422;49.938;9.124;2022-09-21T02:08:54;14.03;;;2.20;;
12715;SDS011;6422;49.938;9.124;2022-09-21T02:11:19;34.00;;;4.47;;
12715;SDS011;6422;49.938;9.124;2022-09-21T02:13:45;15.37;;;3.07;;
12715;SDS011;6422;49.938;9.124;2022-09-21T02:16:20;18.13;;;2.27;;
12715;SDS011;6422;49.938;9.124;2022-09-21T02:19:08;12.63;;;2.00;;
12715;SDS011;6422;49.938;9.124;2022-09-21T02:24:27;20.67;;;3.40;;
12715;SDS011;6422;49.938;9.124;2022-09-21T02:27:01;16.13;;;2.40;;
12715;SDS011;6422;49.938;9.124;2022-09-21T02:29:34;62.43;;;5.27;;
12715;SDS011;6422;49.938;9.124;2022-09-21T02:32:08;83.13;;;8.57;;
12715;SDS011;6422;49.938;9.124;2022-09-21T02:34:52;31.17;;;4.80;;
12715;SDS011;6422;49.938;9.124;2022-09-21T02:37:27;51.97;;;6.50;;
12715;SDS011;6422;49.938;9.124;2022-09-21T02:40:09;33.83;;;7.10;;
12715;SDS011;6422;49.938;9.124;2022-09-21T02:42:38;22.93;;;3.23;;
12715;SDS011;6422;49.938;9.124;2022-09-21T02:45:08;113.50;;;7.57;;
12715;SDS011;6422;49.938;9.124;2022-09-21T02:50:02;56.10;;;6.37;;
12715;SDS011;6422;49.938;9.124;2022-09-21T02:52:28;57.73;;;5.40;;
12715;SDS011;6422;49.938;9.124;2022-09-21T02:54:55;43.87;;;6.23;;
12715;SDS011;6422;49.938;9.124;2022-09-21T02:57:21;34.33;;;3.30;;
12715;SDS011;6422;49.938;9.124;2022-09-21T02:59:47;66.00;;;3.80;;
12715;SDS011;6422;49.938;9.124;2022-09-21T03:02:12;28.03;;;4.93;;
12715;SDS011;6422;49.938;9.124;2022-09-21T03:04:39;84.37;;;6.77;;
12715;SDS011;6422;49.938;9.124;2022-09-21T03:07:05;79.00;;;5.37;;
12715;SDS011;6422;49.938;9.124;2022-09-21T03:09:31;67.50;;;7.80;;
12715;SDS011;6422;49.938;9.124;2022-09-21T03:11:56;167.80;;;12.80;;
12715;SDS011;6422;49.938;9.124;2022-09-21T03:14:21;61.90;;;6.60;;
12715;SDS011;6422;49.938;9.124;2022-09-21T03:16:47;34.10;;;4.05;;
12715;SDS011;6422;49.938;9.124;2022-09-21T03:19:12;153.60;;;8.93;;
12715;SDS011;6422;49.938;9.124;2022-09-21T03:21:37;65.03;;;7.57;;
12715;SDS011;6422;49.938;9.124;2022-09-21T03:24:03;36.20;;;3.90;;
12715;SDS011;6422;49.938;9.124;2022-09-21T03:26:28;37.93;;;4.73;;
12715;SDS011;6422;49.938;9.124;2022-09-21T03:28:53;103.90;;;9.27;;
12715;SDS011;6422;49.938;9.124;2022-09-21T03:31:19;53.53;;;5.37;;
12715;SDS011;6422;49.938;9.124;2022-09-21T03:33:44;93.00;;;8.67;;
12715;SDS011;6422;49.938;9.124;2022-09-21T03:36:09;45.97;;;4.07;;
12715;SDS011;6422;49.938;9.124;2022-09-21T03:38:35;168.73;;;10.97;;
12715;SDS011;6422;49.938;9.124;2022-09-21T03:41:01;41.07;;;4.63;;
12715;SDS011;6422;49.938;9.124;2022-09-21T03:43:26;82.43;;;7.33;;
12715;SDS011;6422;49.938;9.124;2022-09-21T03:45:52;30.23;;;4.90;;
12715;SDS011;6422;49.938;9.124;2022-09-21T03:48:17;28.00;;;2.73;;
12715;SDS011;6422;49.938;9.124;2022-09-21T03:50:42;38.10;;;3.83;;
12715;SDS011;6422;49.938;9.124;2022-09-21T03:53:08;41.67;;;8.23;;
12715;SDS011;6422;49.938;9.124;2022-09-21T03:55:34;46.50;;;4.80;;
12715;SDS011;6422;49.938;9.124;2022-09-21T03:57:59;62.50;;;4.33;;
12715;SDS011;6422;49.938;9.124;2022-09-21T04:00:25;57.87;;;5.13;;
12715;SDS011;6422;49.938;9.124;2022-09-21T04:02:50;77.53;;;4.33;;
12715;SDS011;6422;49.938;9.124;2022-09-21T04:05:15;63.17;;;3.67;;
12715;SDS011;6422;49.938;9.124;2022-09-21T04:07:41;39.03;;;3.23;;
12715;SDS011;6422;49.938;9.124;2022-09-21T04:10:07;33.47;;;3.70;;
12715;SDS011;6422;49.938;9.124;2022-09-21T04:12:33;18.37;;;3.50;;
12715;SDS011;6422;49.938;9.124;2022-09-21T04:14:58;16.03;;;3.50;;
12715;SDS011;6422;49.938;9.124;2022-09-21T04:17:24;36.47;;;5.33;;
12715;SDS011;6422;49.938;9.124;2022-09-21T04:19:49;14.02;;;2.30;;
12715;SDS011;6422;49.938;9.124;2022-09-21T04:22:14;29.10;;;4.10;;
12715;SDS011;6422;49.938;9.124;2022-09-21T04:24:39;51.67;;;6.50;;
12715;SDS011;6422;49.938;9.124;2022-09-21T04:27:05;21.30;;;3.33;;
12715;SDS011;6422;49.938;9.124;2022-09-21T04:29:30;34.77;;;2.50;;
12715;SDS011;6422;49.938;9.124;2022-09-21T04:31:55;18.30;;;3.25;;
12715;SDS011;6422;49.938;9.124;2022-09-21T04:34:22;17.00;;;2.50;;
12715;SDS011;6422;49.938;9.124;2022-09-21T04:36:47;36.00;;;3.72;;
12715;SDS011;6422;49.938;9.124;2022-09-21T04:39:12;21.00;;;3.95;;
12715;SDS011;6422;49.938;9.124;2022-09-21T04:41:37;26.77;;;2.80;;
12715;SDS011;6422;49.938;9.124;2022-09-21T04:44:02;35.90;;;3.15;;
12715;SDS011;6422;49.938;9.124;2022-09-21T04:46:27;20.10;;;2.93;;
12715;SDS011;6422;49.938;9.124;2022-09-21T04:48:53;15.90;;;3.53;;
12715;SDS011;6422;49.938;9.124;2022-09-21T04:51:18;26.50;;;2.40;;
12715;SDS011;6422;49.938;9.124;2022-09-21T04:53:43;141.90;;;5.93;;
12715;SDS011;6422;49.938;9.124;2022-09-21T04:56:09;44.83;;;5.37;;
12715;SDS011;6422;49.938;9.124;2022-09-21T04:58:35;16.50;;;2.83;;
12715;SDS011;6422;49.938;9.124;2022-09-21T05:01:00;15.00;;;2.13;;
12715;SDS011;6422;49.938;9.124;2022-09-21T05:03:25;141.90;;;6.17;;
12715;SDS011;6422;49.938;9.124;2022-09-21T05:05:52;30.20;;;4.80;;
12715;SDS011;6422;49.938;9.124;2022-09-21T05:08:17;43.93;;;5.13;;
12715;SDS011;6422;49.938;9.124;2022-09-21T05:11:03;38.23;;;6.17;;
12715;SDS011;6422;49.938;9.124;2022-09-21T05:13:29;25.47;;;3.50;;
12715;SDS011;6422;49.938;9.124;2022-09-21T05:15:54;62.90;;;7.90;;
12715;SDS011;6422;49.938;9.124;2022-09-21T05:18:19;43.03;;;7.10;;
12715;SDS011;6422;49.938;9.124;2022-09-21T05:20:44;96.77;;;10.47;;
12715;SDS011;6422;49.938;9.124;2022-09-21T05:23:09;19.40;;;3.43;;
12715;SDS011;6422;49.938;9.124;2022-09-21T05:25:35;28.48;;;4.35;;
12715;SDS011;6422;49.938;9.124;2022-09-21T05:28:00;41.25;;;5.93;;
12715;SDS011;6422;49.938;9.124;2022-09-21T05:30:25;57.20;;;5.93;;
12715;SDS011;6422;49.938;9.124;2022-09-21T05:32:55;37.70;;;5.30;;
12715;SDS011;6422;49.938;9.124;2022-09-21T05:40:33;43.23;;;7.60;;
12715;SDS011;6422;49.938;9.124;2022-09-21T05:42:58;50.73;;;3.77;;
12715;SDS011;6422;49.938;9.124;2022-09-21T05:45:24;51.83;;;4.73;;
12715;SDS011;6422;49.938;9.124;2022-09-21T05:50:37;39.73;;;14.80;;
12715;SDS011;6422;49.938;9.124;2022-09-21T05:55:58;37.13;;;12.03;;
12715;SDS011;6422;49.938;9.124;2022-09-21T06:01:02;30.10;;;3.90;;
12715;SDS011;6422;49.938;9.124;2022-09-21T06:03:29;22.90;;;3.07;;
12715;SDS011;6422;49.938;9.124;2022-09-21T06:05:54;26.67;;;5.37;;
12715;SDS011;6422;49.938;9.124;2022-09-21T06:08:20;31.07;;;4.00;;
12715;SDS011;6422;49.938;9.124;2022-09-21T06:10:46;25.37;;;2.50;;
12715;SDS011;6422;49.938;9.124;2022-09-21T06:13:11;61.07;;;6.47;;
12715;SDS011;6422;49.938;9.124;2022-09-21T06:15:36;37.67;;;4.70;;
12715;SDS011;6422;49.938;9.124;2022-09-21T06:18:03;53.53;;;6.30;;
12715;SDS011;6422;49.938;9.124;2022-09-21T06:20:28;61.13;;;5.83;;
12715;SDS011;6422;49.938;9.124;2022-09-21T06:22:58;59.30;;;6.13;;
12715;SDS011;6422;49.938;9.124;2022-09-21T06:25:23;82.43;;;5.90;;
12715;SDS011;6422;49.938;9.124;2022-09-21T06:27:49;90.90;;;6.40;;
12715;SDS011;6422;49.938;9.124;2022-09-21T06:30:14;33.88;;;3.90;;
12715;SDS011;6422;49.938;9.124;2022-09-21T06:32:39;29.23;;;6.70;;
12715;SDS011;6422;49.938;9.124;2022-09-21T06:35:04;48.63;;;5.83;;
12715;SDS011;6422;49.938;9.124;2022-09-21T06:37:29;46.27;;;5.53;;
12715;SDS011;6422;49.938;9.124;2022-09-21T06:39:55;16.15;;;3.17;;
12715;SDS011;6422;49.938;9.124;2022-09-21T06:42:20;27.97;;;2.73;;
12715;SDS011;6422;49.938;9.124;2022-09-21T06:44:45;27.13;;;3.95;;
12715;SDS011;6422;49.938;9.124;2022-09-21T06:47:11;17.45;;;3.60;;
12715;SDS011;6422;49.938;9.124;2022-09-21T06:49:36;12.90;;;2.00;;
12715;SDS011;6422;49.938;9.124;2022-09-21T06:52:01;19.02;;;3.90;;
12715;SDS011;6422;49.938;9.124;2022-09-21T06:54:26;18.67;;;3.20;;
12715;SDS011;6422;49.938;9.124;2022-09-21T06:56:51;14.63;;;3.33;;
12715;SDS011;6422;49.938;9.124;2022-09-21T06:59:17;24.17;;;4.47;;
12715;SDS011;6422;49.938;9.124;2022-09-21T07:01:42;41.35;;;5.15;;
12715;SDS011;6422;49.938;9.124;2022-09-21T07:04:08;42.07;;;4.13;;
12715;SDS011;6422;49.938;9.124;2022-09-21T07:06:33;18.07;;;3.53;;
12715;SDS011;6422;49.938;9.124;2022-09-21T07:08:58;17.17;;;2.70;;
12715;SDS011;6422;49.938;9.124;2022-09-21T07:11:25;15.10;;;2.50;;
12715;SDS011;6422;49.938;9.124;2022-09-21T07:13:51;45.43;;;3.30;;
12715;SDS011;6422;49.938;9.124;2022-09-21T07:16:16;14.03;;;2.10;;
12715;SDS011;6422;49.938;9.124;2022-09-21T07:18:43;15.70;;;3.08;;
12715;SDS011;6422;49.938;9.124;2022-09-21T07:21:09;34.50;;;4.22;;
12715;SDS011;6422;49.938;9.124;2022-09-21T07:23:35;15.20;;;3.37;;
12715;SDS011;6422;49.938;9.124;2022-09-21T07:26:01;14.40;;;1.87;;
12715;SDS011;6422;49.938;9.124;2022-09-21T07:28:26;31.93;;;4.53;;
12715;SDS011;6422;49.938;9.124;2022-09-21T07:30:51;16.47;;;2.40;;
12715;SDS011;6422;49.938;9.124;2022-09-21T07:33:17;20.60;;;3.40;;
12715;SDS011;6422;49.938;9.124;2022-09-21T07:35:49;15.50;;;2.50;;
12715;SDS011;6422;49.938;9.124;2022-09-21T07:38:14;11.90;;;2.97;;
12715;SDS011;6422;49.938;9.124;2022-09-21T07:40:39;16.17;;;2.92;;
12715;SDS011;6422;49.938;9.124;2022-09-21T07:43:04;11.83;;;2.23;;
12715;SDS011;6422;49.938;9.124;2022-09-21T07:45:30;11.97;;;2.47;;
12715;SDS011;6422;49.938;9.124;2022-09-21T07:48:00;16.30;;;3.00;;
12715;SDS011;6422;49.938;9.124;2022-09-21T07:50:26;16.23;;;2.93;;
12715;SDS011;6422;49.938;9.124;2022-09-21T07:52:51;14.47;;;3.53;;
12715;SDS011;6422;49.938;9.124;2022-09-21T07:55:16;15.05;;;3.28;;
12715;SDS011;6422;49.938;9.124;2022-09-21T07:57:41;13.73;;;2.63;;
12715;SDS011;6422;49.938;9.124;2022-09-21T08:00:25;20.40;;;4.20;;
12715;SDS011;6422;49.938;9.124;2022-09-21T08:02:53;18.70;;;4.20;;
12715;SDS011;6422;49.938;9.124;2022-09-21T08:05:18;13.37;;;2.77;;
12715;SDS011;6422;49.938;9.124;2022-09-21T08:07:43;18.50;;;3.50;;
12715;SDS011;6422;49.938;9.124;2022-09-21T08:10:08;19.03;;;3.40;;
12715;SDS011;6422;49.938;9.124;2022-09-21T08:12:34;14.83;;;2.77;;
12715;SDS011;6422;49.938;9.124;2022-09-21T08:14:59;15.73;;;3.80;;
12715;SDS011;6422;49.938;9.124;2022-09-21T08:17:24;16.02;;;3.42;;
12715;SDS011;6422;49.938;9.124;2022-09-21T08:19:49;14.13;;;3.17;;
12715;SDS011;6422;49.938;9.124;2022-09-21T08:22:15;15.20;;;3.30;;
12715;SDS011;6422;49.938;9.124;2022-09-21T08:24:40;19.73;;;3.55;;
12715;SDS011;6422;49.938;9.124;2022-09-21T08:27:08;15.67;;;3.87;;
12715;SDS011;6422;49.938;9.124;2022-09-21T08:29:33;15.20;;;2.37;;
12715;SDS011;6422;49.938;9.124;2022-09-21T08:32:00;15.77;;;4.00;;
12715;SDS011;6422;49.938;9.124;2022-09-21T08:34:26;17.10;;;3.40;;
12715;SDS011;6422;49.938;9.124;2022-09-21T08:36:51;16.53;;;3.47;;
12715;SDS011;6422;49.938;9.124;2022-09-21T08:39:17;15.00;;;3.13;;
12715;SDS011;6422;49.938;9.124;2022-09-21T08:46:38;18.53;;;4.17;;
12715;SDS011;6422;49.938;9.124;2022-09-21T08:49:15;17.13;;;4.10;;
12715;SDS011;6422;49.938;9.124;2022-09-21T08:52:05;15.20;;;3.67;;
12715;SDS011;6422;49.938;9.124;2022-09-21T08:54:29;18.57;;;4.10;;
12715;SDS011;6422;49.938;9.124;2022-09-21T08:56:58;19.57;;;3.57;;
12715;SDS011;6422;49.938;9.124;2022-09-21T08:59:23;18.58;;;4.50;;
12715;SDS011;6422;49.938;9.124;2022-09-21T09:01:53;14.90;;;4.10;;
12715;SDS011;6422;49.938;9.124;2022-09-21T09:04:28;17.57;;;3.43;;
12715;SDS011;6422;49.938;9.124;2022-09-21T09:09:35;19.63;;;3.90;;
12715;SDS011;6422;49.938;9.124;2022-09-21T09:12:27;16.77;;;5.47;;
12715;SDS011;6422;49.938;9.124;2022-09-21T09:20:39;16.53;;;3.77;;
12715;SDS011;6422;49.938;9.124;2022-09-21T09:22:46;31.87;;;4.33;;
12715;SDS011;6422;49.938;9.124;2022-09-21T09:25:16;14.07;;;3.40;;
12715;SDS011;6422;49.938;9.124;2022-09-21T09:27:43;12.30;;;2.77;;
12715;SDS011;6422;49.938;9.124;2022-09-21T09:30:25;14.50;;;3.90;;
12715;SDS011;6422;49.938;9.124;2022-09-21T09:32:57;14.00;;;2.77;;
12715;SDS011;6422;49.938;9.124;2022-09-21T09:37:49;15.82;;;3.70;;
12715;SDS011;6422;49.938;9.124;2022-09-21T09:40:14;14.10;;;2.40;;
12715;SDS011;6422;49.938;9.124;2022-09-21T09:42:47;13.77;;;3.30;;
12715;SDS011;6422;49.938;9.124;2022-09-21T09:45:28;12.83;;;3.07;;
12715;SDS011;6422;49.938;9.124;2022-09-21T09:47:59;12.53;;;2.60;;
12715;SDS011;6422;49.938;9.124;2022-09-21T09:52:51;11.27;;;1.80;;
12715;SDS011;6422;49.938;9.124;2022-09-21T09:55:27;12.80;;;2.33;;
12715;SDS011;6422;49.938;9.124;2022-09-21T09:57:56;14.03;;;2.30;;
12715;SDS011;6422;49.938;9.124;2022-09-21T10:00:22;13.23;;;2.10;;
12715;SDS011;6422;49.938;9.124;2022-09-21T10:02:51;16.23;;;2.83;;
12715;SDS011;6422;49.938;9.124;2022-09-21T10:07:45;12.13;;;2.00;;
12715;SDS011;6422;49.938;9.124;2022-09-21T10:12:47;14.00;;;2.33;;
12715;SDS011;6422;49.938;9.124;2022-09-21T10:15:13;15.10;;;2.50;;
12715;SDS011;6422;49.938;9.124;2022-09-21T10:17:40;12.90;;;2.60;;
12715;SDS011;6422;49.938;9.124;2022-09-21T10:20:06;13.87;;;2.13;;
12715;SDS011;6422;49.938;9.124;2022-09-21T10:22:32;12.27;;;2.50;;
12715;SDS011;6422;49.938;9.124;2022-09-21T10:24:57;10.13;;;1.83;;
12715;SDS011;6422;49.938;9.124;2022-09-21T10:27:33;11.27;;;1.80;;
12715;SDS011;6422;49.938;9.124;2022-09-21T10:29:58;11.83;;;1.90;;
12715;SDS011;6422;49.938;9.124;2022-09-21T10:32:24;12.33;;;2.30;;
12715;SDS011;6422;49.938;9.124;2022-09-21T10:37:25;15.97;;;3.43;;
12715;SDS011;6422;49.938;9.124;2022-09-21T10:39:51;12.87;;;2.40;;
12715;SDS011;6422;49.938;9.124;2022-09-21T10:42:17;10.70;;;2.27;;
12715;SDS011;6422;49.938;9.124;2022-09-21T10:44:43;13.00;;;2.13;;
12715;SDS011;6422;49.938;9.124;2022-09-21T10:47:22;12.20;;;2.30;;
12715;SDS011;6422;49.938;9.124;2022-09-21T10:49:58;11.77;;;2.00;;
12715;SDS011;6422;49.938;9.124;2022-09-21T10:52:30;12.93;;;2.20;;
12715;SDS011;6422;49.938;9.124;2022-09-21T10:54:56;13.03;;;2.10;;
12715;SDS011;6422;49.938;9.124;2022-09-21T10:57:22;12.83;;;2.33;;
12715;SDS011;6422;49.938;9.124;2022-09-21T10:59:47;11.33;;;2.47;;
12715;SDS011;6422;49.938;9.124;2022-09-21T11:02:26;11.40;;;2.40;;
12715;SDS011;6422;49.938;9.124;2022-09-21T11:04:55;15.27;;;2.63;;
12715;SDS011;6422;49.938;9.124;2022-09-21T11:10:18;15.90;;;2.50;;
12715;SDS011;6422;49.938;9.124;2022-09-21T11:12:56;15.73;;;3.35;;
12715;SDS011;6422;49.938;9.124;2022-09-21T11:18:15;11.90;;;2.40;;
12715;SDS011;6422;49.938;9.124;2022-09-21T11:20:53;12.30;;;2.17;;
12715;SDS011;6422;49.938;9.124;2022-09-21T11:25:47;13.02;;;2.40;;
12715;SDS011;6422;49.938;9.124;2022-09-21T11:28:17;13.67;;;2.30;;
12715;SDS011;6422;49.938;9.124;2022-09-21T11:35:51;13.30;;;2.33;;
12715;SDS011;6422;49.938;9.124;2022-09-21T11:38:27;13.20;;;4.15;;
12715;SDS011;6422;49.938;9.124;2022-09-21T11:40:59;12.40;;;2.30;;
12715;SDS011;6422;49.938;9.124;2022-09-21T11:48:36;12.40;;;2.20;;
12715;SDS011;6422;49.938;9.124;2022-09-21T11:51:27;14.50;;;2.47;;
12715;SDS011;6422;49.938;9.124;2022-09-21T11:56:37;15.43;;;2.57;;
12715;SDS011;6422;49.938;9.124;2022-09-21T12:01:55;11.27;;;2.30;;
12715;SDS011;6422;49.938;9.124;2022-09-21T12:04:40;12.93;;;2.53;;
12715;SDS011;6422;49.938;9.124;2022-09-21T12:15:18;12.70;;;2.30;;
12715;SDS011;6422;49.938;9.124;2022-09-21T12:18:47;13.00;;;2.60;;
12715;SDS011;6422;49.938;9.124;2022-09-21T12:23:13;12.67;;;2.13;;
12715;SDS011;6422;49.938;9.124;2022-09-21T12:25:41;11.40;;;2.07;;
12715;SDS011;6422;49.938;9.124;2022-09-21T12:28:23;11.60;;;2.00;;
12715;SDS011;6422;49.938;9.124;2022-09-21T12:30:50;11.30;;;1.97;;
12715;SDS011;6422;49.938;9.124;2022-09-21T12:33:20;11.73;;;1.90;;
12715;SDS011;6422;49.938;9.124;2022-09-21T12:35:49;13.57;;;1.97;;
12715;SDS011;6422;49.938;9.124;2022-09-21T12:38:39;14.10;;;2.10;;
12715;SDS011;6422;49.938;9.124;2022-09-21T12:41:14;10.90;;;1.87;;
12715;SDS011;6422;49.938;9.124;2022-09-21T12:43:42;11.47;;;1.87;;
12715;SDS011;6422;49.938;9.124;2022-09-21T12:48:52;11.30;;;1.50;;
12715;SDS011;6422;49.938;9.124;2022-09-21T12:51:19;12.40;;;1.90;;
12715;SDS011;6422;49.938;9.124;2022-09-21T12:53:46;12.53;;;1.73;;
12715;SDS011;6422;49.938;9.124;2022-09-21T12:58:48;12.27;;;2.00;;
12715;SDS011;6422;49.938;9.124;2022-09-21T13:01:18;14.80;;;2.33;;
12715;SDS011;6422;49.938;9.124;2022-09-21T13:03:56;11.83;;;2.10;;
12715;SDS011;6422;49.938;9.124;2022-09-21T13:08:57;10.67;;;1.53;;
12715;SDS011;6422;49.938;9.124;2022-09-21T13:11:25;13.30;;;1.83;;
12715;SDS011;6422;49.938;9.124;2022-09-21T13:13:57;11.67;;;1.80;;
12715;SDS011;6422;49.938;9.124;2022-09-21T13:18:53;12.30;;;1.87;;
12715;SDS011;6422;49.938;9.124;2022-09-21T13:21:20;12.07;;;1.63;;
12715;SDS011;6422;49.938;9.124;2022-09-21T13:24:06;12.50;;;1.70;;
12715;SDS011;6422;49.938;9.124;2022-09-21T13:29:05;12.40;;;1.63;;
12715;SDS011;6422;49.938;9.124;2022-09-21T13:34:23;12.23;;;1.63;;
12715;SDS011;6422;49.938;9.124;2022-09-21T13:39:32;10.57;;;1.90;;
12715;SDS011;6422;49.938;9.124;2022-09-21T13:41:57;11.93;;;1.50;;
12715;SDS011;6422;49.938;9.124;2022-09-21T13:47:03;12.30;;;1.60;;
12715;SDS011;6422;49.938;9.124;2022-09-21T13:50:11;12.70;;;1.70;;
12715;SDS011;6422;49.938;9.124;2022-09-21T13:57:27;12.40;;;1.73;;
12715;SDS011;6422;49.938;9.124;2022-09-21T14:00:07;12.80;;;1.53;;
12715;SDS011;6422;49.938;9.124;2022-09-21T14:02:34;12.07;;;1.90;;
12715;SDS011;6422;49.938;9.124;2022-09-21T14:05:23;10.07;;;1.63;;
12715;SDS011;6422;49.938;9.124;2022-09-21T14:07:56;10.07;;;1.43;;
12715;SDS011;6422;49.938;9.124;2022-09-21T14:10:22;12.00;;;2.30;;
12715;SDS011;6422;49.938;9.124;2022-09-21T14:12:48;11.98;;;2.03;;
12715;SDS011;6422;49.938;9.124;2022-09-21T14:17:43;11.03;;;1.77;;
12715;SDS011;6422;49.938;9.124;2022-09-21T14:20:31;11.40;;;2.00;;
12715;SDS011;6422;49.938;9.124;2022-09-21T14:25:55;11.50;;;1.87;;
12715;SDS011;6422;49.938;9.124;2022-09-21T14:28:26;11.90;;;1.50;;
12715;SDS011;6422;49.938;9.124;2022-09-21T14:30:54;12.70;;;1.47;;
12715;SDS011;6422;49.938;9.124;2022-09-21T14:33:25;11.30;;;1.40;;
12715;SDS011;6422;49.938;9.124;2022-09-21T14:35:51;11.87;;;1.60;;
12715;SDS011;6422;49.938;9.124;2022-09-21T14:40:45;12.37;;;1.50;;
12715;SDS011;6422;49.938;9.124;2022-09-21T14:43:14;11.33;;;1.63;;
12715;SDS011;6422;49.938;9.124;2022-09-21T14:45:45;12.13;;;1.40;;
12715;SDS011;6422;49.938;9.124;2022-09-21T14:48:25;11.00;;;1.50;;
12715;SDS011;6422;49.938;9.124;2022-09-21T14:51:02;12.30;;;1.73;;
12715;SDS011;6422;49.938;9.124;2022-09-21T14:58:47;12.80;;;1.60;;
12715;SDS011;6422;49.938;9.124;2022-09-21T15:06:40;11.43;;;1.67;;
12715;SDS011;6422;49.938;9.124;2022-09-21T15:09:43;10.17;;;1.70;;
12715;SDS011;6422;49.938;9.124;2022-09-21T15:17:59;11.67;;;1.33;;
12715;SDS011;6422;49.938;9.124;2022-09-21T15:20:27;10.20;;;1.60;;
12715;SDS011;6422;49.938;9.124;2022-09-21T15:22:56;11.83;;;1.40;;
12715;SDS011;6422;49.938;9.124;2022-09-21T15:25:23;10.40;;;1.43;;
12715;SDS011;6422;49.938;9.124;2022-09-21T15:27:48;12.80;;;1.60;;
12715;SDS011;6422;49.938;9.124;2022-09-21T15:30:22;12.17;;;1.43;;
12715;SDS011;6422;49.938;9.124;2022-09-21T15:32:53;11.13;;;1.43;;
12715;SDS011;6422;49.938;9.124;2022-09-21T15:35:20;12.83;;;1.87;;
12715;SDS011;6422;49.938;9.124;2022-09-21T15:37:45;12.37;;;1.97;;
12715;SDS011;6422;49.938;9.124;2022-09-21T15:40:24;16.20;;;2.10;;
12715;SDS011;6422;49.938;9.124;2022-09-21T15:45:28;12.07;;;1.40;;
12715;SDS011;6422;49.938;9.124;2022-09-21T15:47:57;13.67;;;2.23;;
12715;SDS011;6422;49.938;9.124;2022-09-21T15:50:22;12.80;;;1.97;;
12715;SDS011;6422;49.938;9.124;2022-09-21T15:52:53;11.77;;;1.70;;
12715;SDS011;6422;49.938;9.124;2022-09-21T15:55:21;11.33;;;1.80;;
12715;SDS011;6422;49.938;9.124;2022-09-21T15:57:53;11.23;;;2.00;;
12715;SDS011;6422;49.938;9.124;2022-09-21T16:00:29;11.43;;;1.50;;
12715;SDS011;6422;49.938;9.124;2022-09-21T16:03:00;11.33;;;1.90;;
12715;SDS011;6422;49.938;9.124;2022-09-21T16:05:28;11.23;;;2.10;;
12715;SDS011;6422;49.938;9.124;2022-09-21T16:10:51;11.90;;;1.53;;
12715;SDS011;6422;49.938;9.124;2022-09-21T16:13:21;11.67;;;1.80;;
12715;SDS011;6422;49.938;9.124;2022-09-21T16:16:09;12.50;;;1.90;;
12715;SDS011;6422;49.938;9.124;2022-09-21T16:18:47;13.47;;;2.50;;
12715;SDS011;6422;49.938;9.124;2022-09-21T16:21:29;16.23;;;2.37;;
12715;SDS011;6422;49.938;9.124;2022-09-21T16:23:57;11.63;;;1.70;;
12715;SDS011;6422;49.938;9.124;2022-09-21T16:26:32;13.67;;;1.70;;
12715;SDS011;6422;49.938;9.124;2022-09-21T16:29:43;12.30;;;1.70;;
12715;SDS011;6422;49.938;9.124;2022-09-21T16:31:43;12.60;;;1.63;;
12715;SDS011;6422;49.938;9.124;2022-09-21T16:34:21;14.90;;;2.80;;
12715;SDS011;6422;49.938;9.124;2022-09-21T16:36:48;12.27;;;1.60;;
12715;SDS011;6422;49.938;9.124;2022-09-21T16:39:14;12.10;;;1.93;;
12715;SDS011;6422;49.938;9.124;2022-09-21T16:41:42;11.43;;;1.77;;
12715;SDS011;6422;49.938;9.124;2022-09-21T16:44:15;13.90;;;1.50;;
12715;SDS011;6422;49.938;9.124;2022-09-21T16:46:45;11.60;;;1.57;;
12715;SDS011;6422;49.938;9.124;2022-09-21T16:49:13;13.50;;;1.80;;
12715;SDS011;6422;49.938;9.124;2022-09-21T16:51:42;12.57;;;1.80;;
12715;SDS011;6422;49.938;9.124;2022-09-21T16:54:08;11.90;;;1.90;;
12715;SDS011;6422;49.938;9.124;2022-09-21T16:56:33;11.50;;;1.70;;
12715;SDS011;6422;49.938;9.124;2022-09-21T16:58:58;11.67;;;1.67;;
12715;SDS011;6422;49.938;9.124;2022-09-21T17:01:28;11.63;;;1.80;;
12715;SDS011;6422;49.938;9.124;2022-09-21T17:03:54;11.73;;;1.73;;
12715;SDS011;6422;49.938;9.124;2022-09-21T17:06:20;13.53;;;2.33;;
12715;SDS011;6422;49.938;9.124;2022-09-21T17:08:46;11.67;;;1.43;;
12715;SDS011;6422;49.938;9.124;2022-09-21T17:11:12;12.80;;;1.90;;
12715;SDS011;6422;49.938;9.124;2022-09-21T17:13:38;12.17;;;2.33;;
12715;SDS011;6422;49.938;9.124;2022-09-21T17:16:03;13.07;;;2.43;;
12715;SDS011;6422;49.938;9.124;2022-09-21T17:18:29;12.83;;;2.40;;